sensor_id;sensor_type;location;lat;lon;timestamp;pressure;altitude;pressure_sealevel;temperature;humidity
63347;BME280;49472;49.880;8.650;2023-02-16T22:00:58;100851.34;;;10.15;73.14
63347;BME280;49472;49.880;8.650;2023-02-16T22:03:25;100849.25;;;10.22;72.92
63347;BME280;49472;49.880;8.650;2023-02-16T22:05:50;100849.75;;;10.29;72.96
63347;BME280;49472;49.880;8.650;2023-02-16T22:08:15;100836.41;;;10.38;71.62
63347;BME280;49472;49.880;8.650;2023-02-16T22:10:42;100848.38;;;10.52;71.34
63347;BME280;49472;49.880;8.650;2023-02-16T22:13:07;100844.00;;;10.54;70.48
63347;BME280;49472;49.880;8.650;2023-02-16T22:15:37;100850.84;;;10.68;69.99
63347;BME280;49472;49.880;8.650;2023-02-16T22:18:04;100847.53;;;10.80;68.69
63347;BME280;49472;49.880;8.650;2023-02-16T22:20:29;100850.25;;;10.91;68.66
63347;BME280;49472;49.880;8.650;2023-02-16T22:22:54;100835.38;;;10.98;68.97
63347;BME280;49472;49.880;8.650;2023-02-16T22:25:20;100836.53;;;11.06;68.07
63347;BME280;49472;49.880;8.650;2023-02-16T22:27:47;100852.88;;;11.18;68.01
63347;BME280;49472;49.880;8.650;2023-02-16T22:30:13;100840.06;;;11.18;67.84
63347;BME280;49472;49.880;8.650;2023-02-16T22:32:38;100847.88;;;11.29;68.06
63347;BME280;49472;49.880;8.650;2023-02-16T22:35:03;100872.25;;;11.22;67.17
63347;BME280;49472;49.880;8.650;2023-02-16T22:37:31;100850.28;;;11.33;66.99
63347;BME280;49472;49.880;8.650;2023-02-16T22:39:56;100851.09;;;11.33;66.90
63347;BME280;49472;49.880;8.650;2023-02-16T22:42:21;100861.66;;;11.41;67.39
63347;BME280;49472;49.880;8.650;2023-02-16T22:44:47;100864.69;;;11.34;68.59
63347;BME280;49472;49.880;8.650;2023-02-16T22:47:12;100870.91;;;11.29;69.33
63347;BME280;49472;49.880;8.650;2023-02-16T22:49:37;100871.72;;;11.17;70.45
63347;BME280;49472;49.880;8.650;2023-02-16T22:52:03;100864.16;;;11.28;70.61
63347;BME280;49472;49.880;8.650;2023-02-16T22:54:28;100865.78;;;11.29;70.44
63347;BME280;49472;49.880;8.650;2023-02-16T22:56:53;100872.25;;;11.08;72.57
63347;BME280;49472;49.880;8.650;2023-02-16T22:59:19;100886.25;;;11.02;77.30
63347;BME280;49472;49.880;8.650;2023-02-16T23:01:44;100873.59;;;10.86;76.86
63347;BME280;49472;49.880;8.650;2023-02-16T23:04:12;100871.19;;;10.98;75.99
63347;BME280;49472;49.880;8.650;2023-02-16T23:06:38;100871.91;;;11.00;75.66
63347;BME280;49472;49.880;8.650;2023-02-16T23:09:11;100870.09;;;11.02;74.69
63347;BME280;49472;49.880;8.650;2023-02-16T23:11:37;100869.91;;;11.05;73.85
63347;BME280;49472;49.880;8.650;2023-02-16T23:14:04;100866.31;;;11.07;73.71
63347;BME280;49472;49.880;8.650;2023-02-16T23:16:29;100867.16;;;11.08;73.29
63347;BME280;49472;49.880;8.650;2023-02-16T23:18:56;100871.34;;;11.09;73.14
63347;BME280;49472;49.880;8.650;2023-02-16T23:21:25;100871.34;;;11.09;72.86
63347;BME280;49472;49.880;8.650;2023-02-16T23:23:52;100867.47;;;11.16;72.81
63347;BME280;49472;49.880;8.650;2023-02-16T23:26:20;100863.38;;;11.14;73.03
63347;BME280;49472;49.880;8.650;2023-02-16T23:28:49;100872.41;;;11.19;72.58
63347;BME280;49472;49.880;8.650;2023-02-16T23:31:15;100863.56;;;11.25;71.81
63347;BME280;49472;49.880;8.650;2023-02-16T23:33:41;100865.78;;;11.29;71.37
63347;BME280;49472;49.880;8.650;2023-02-16T23:36:06;100863.28;;;11.15;71.51
63347;BME280;49472;49.880;8.650;2023-02-16T23:38:32;100855.56;;;11.29;71.56
63347;BME280;49472;49.880;8.650;2023-02-16T23:40:59;100851.13;;;11.19;70.74
63347;BME280;49472;49.880;8.650;2023-02-16T23:43:25;100848.06;;;11.26;70.34
63347;BME280;49472;49.880;8.650;2023-02-16T23:45:51;100852.44;;;11.39;69.99
63347;BME280;49472;49.880;8.650;2023-02-16T23:48:17;100852.44;;;11.39;69.41
63347;BME280;49472;49.880;8.650;2023-02-16T23:50:42;100841.22;;;11.54;69.42
63347;BME280;49472;49.880;8.650;2023-02-16T23:53:08;100853.69;;;11.46;68.55
63347;BME280;49472;49.880;8.650;2023-02-16T23:55:33;100830.72;;;11.44;68.50
63347;BME280;49472;49.880;8.650;2023-02-16T23:57:58;100835.75;;;11.46;68.68
